Johnson County (6A4)
Johnson County, TN
Field Elevation: 2240
Lat: 36°25.07N  Long: 81°49.51W
CTAF/Unicom Freq: 122.7000
   
    
Weather Advisories
4/19/2014 22:07 Z
Altimeter 30.18" Hg
Wind 060° @ 11 KT
Gusts 17 KT
Visibility 10 SM
Ceiling OVC084
Temperature 17° C (63° F)
Dewpoint 0° C (32° F)
Relative Humidity 31%
Density Altitude --
Condensation Altitude 10,900 feet
  Wind and Runways
Indicated Runway = 6
History
 
 
More Info
All DigiWx sites map
 
Johnson County Airport FBO
 
Airport IQ 5010
(M01) General Dewitt Spain Airport
(3M3) Collegedale Muni
 
about DigiWx
 
FAA Disclaimer: The data displayed is for advisory purposes only and is not to be used for flight planning or operations. For official data, please call (not available) to hear the current automated AWOS voice message.
  METAR 6A4 192207Z AUTO 06011G17KT 10SM OVC084 17/00 A3018